Canebrake, West Virginia
Current Conditions -  °F | °C
As of 5:55 AM on Sunday 23 Nov 2014 (Local Time) from KJFZ Reporting Station
Clear Clear  
Wind Chill: 52°   Ceiling: Unl
Heat Index: 52°   Visibility: 10mi
Dew Point: 35°   Wind: 3mph
Humidity: 54%   Direction: 150°SSE
Pressure: 30.14"   Gusts: NA
Location:  37.2686°N, 81.6669°W
Report Text: KJFZ 231055Z AUTO 15003KT 10SM CLR 11/02 A3014 RMK AO2 T01090019
Loading
Personal Weather Stations






























Interactive Weather Map New forecast layout! Learn more

10-Day Weather Forecast

Advertisements
Track Severe Weather on mobile